sensor_id;sensor_type;location;lat;lon;timestamp;pressure;altitude;pressure_sealevel;temperature;humidity
25722;BME280;13578;53.450;15.496;2023-05-20T00:00:35;100965.75;;;8.22;100.00
25722;BME280;13578;53.450;15.496;2023-05-20T00:03:35;100965.91;;;8.19;100.00
25722;BME280;13578;53.450;15.496;2023-05-20T00:06:36;100962.22;;;8.20;100.00
25722;BME280;13578;53.450;15.496;2023-05-20T00:09:38;100959.69;;;8.17;100.00
25722;BME280;13578;53.450;15.496;2023-05-20T00:12:38;100965.47;;;8.27;100.00
25722;BME280;13578;53.450;15.496;2023-05-20T00:15:39;100958.78;;;8.17;100.00
25722;BME280;13578;53.450;15.496;2023-05-20T00:18:40;100959.69;;;8.17;100.00
25722;BME280;13578;53.450;15.496;2023-05-20T00:21:40;100957.53;;;8.22;100.00
25722;BME280;13578;53.450;15.496;2023-05-20T00:24:41;100961.06;;;8.24;100.00
25722;BME280;13578;53.450;15.496;2023-05-20T00:27:41;100963.22;;;8.34;100.00
25722;BME280;13578;53.450;15.496;2023-05-20T00:30:42;100958.06;;;8.29;100.00
25722;BME280;13578;53.450;15.496;2023-05-20T00:33:43;100951.41;;;8.33;100.00
25722;BME280;13578;53.450;15.496;2023-05-20T00:36:43;100953.56;;;8.42;100.00
25722;BME280;13578;53.450;15.496;2023-05-20T00:39:44;100959.13;;;8.41;100.00
25722;BME280;13578;53.450;15.496;2023-05-20T00:42:44;100954.19;;;8.48;100.00
25722;BME280;13578;53.450;15.496;2023-05-20T00:45:46;100942.94;;;8.67;100.00
25722;BME280;13578;53.450;15.496;2023-05-20T00:48:47;100949.50;;;8.79;100.00
25722;BME280;13578;53.450;15.496;2023-05-20T00:51:48;100934.63;;;8.68;100.00
25722;BME280;13578;53.450;15.496;2023-05-20T00:54:49;100954.56;;;8.85;100.00
25722;BME280;13578;53.450;15.496;2023-05-20T00:57:51;100946.53;;;8.82;100.00
25722;BME280;13578;53.450;15.496;2023-05-20T01:00:52;100939.91;;;8.86;100.00
25722;BME280;13578;53.450;15.496;2023-05-20T01:03:53;100947.88;;;9.03;100.00
25722;BME280;13578;53.450;15.496;2023-05-20T01:06:54;100936.16;;;9.01;100.00
25722;BME280;13578;53.450;15.496;2023-05-20T01:09:55;100955.13;;;9.04;100.00
25722;BME280;13578;53.450;15.496;2023-05-20T01:12:57;100957.66;;;9.08;100.00
25722;BME280;13578;53.450;15.496;2023-05-20T01:16:00;100948.56;;;9.07;100.00
25722;BME280;13578;53.450;15.496;2023-05-20T01:19:02;100953.72;;;9.26;100.00
25722;BME280;13578;53.450;15.496;2023-05-20T01:22:06;100950.59;;;9.18;100.00
25722;BME280;13578;53.450;15.496;2023-05-20T01:25:07;100951.75;;;9.28;100.00
25722;BME280;13578;53.450;15.496;2023-05-20T01:28:08;100956.38;;;9.28;100.00
25722;BME280;13578;53.450;15.496;2023-05-20T01:31:30;100940.13;;;9.25;100.00
25722;BME280;13578;53.450;15.496;2023-05-20T01:34:34;100936.50;;;9.24;100.00
25722;BME280;13578;53.450;15.496;2023-05-20T01:37:38;100935.13;;;9.31;100.00
25722;BME280;13578;53.450;15.496;2023-05-20T01:40:40;100945.84;;;9.34;100.00
25722;BME280;13578;53.450;15.496;2023-05-20T01:43:43;100937.56;;;9.36;100.00
25722;BME280;13578;53.450;15.496;2023-05-20T01:46:48;100938.31;;;9.38;100.00
25722;BME280;13578;53.450;15.496;2023-05-20T01:49:49;100937.22;;;9.41;100.00
25722;BME280;13578;53.450;15.496;2023-05-20T01:52:52;100938.13;;;9.41;100.00
25722;BME280;13578;53.450;15.496;2023-05-20T01:55:52;100948.97;;;9.43;100.00
25722;BME280;13578;53.450;15.496;2023-05-20T01:58:53;100939.56;;;9.47;100.00
25722;BME280;13578;53.450;15.496;2023-05-20T02:01:54;100946.22;;;9.43;100.00
25722;BME280;13578;53.450;15.496;2023-05-20T02:04:54;100946.59;;;9.51;100.00
25722;BME280;13578;53.450;15.496;2023-05-20T02:07:55;100942.66;;;9.55;100.00
25722;BME280;13578;53.450;15.496;2023-05-20T02:10:56;100939.34;;;9.50;100.00
25722;BME280;13578;53.450;15.496;2023-05-20T02:13:56;100947.38;;;9.53;100.00
25722;BME280;13578;53.450;15.496;2023-05-20T02:16:57;100939.56;;;9.47;100.00
25722;BME280;13578;53.450;15.496;2023-05-20T02:19:58;100951.78;;;9.56;100.00
25722;BME280;13578;53.450;15.496;2023-05-20T02:22:58;100938.63;;;9.61;100.00
25722;BME280;13578;53.450;15.496;2023-05-20T02:25:59;100935.44;;;9.54;100.00
25722;BME280;13578;53.450;15.496;2023-05-20T02:29:00;100932.78;;;9.52;100.00
25722;BME280;13578;53.450;15.496;2023-05-20T02:32:01;100933.44;;;9.56;100.00
25722;BME280;13578;53.450;15.496;2023-05-20T02:35:01;100938.84;;;9.58;100.00
25722;BME280;13578;53.450;15.496;2023-05-20T02:38:02;100942.81;;;9.66;100.00
25722;BME280;13578;53.450;15.496;2023-05-20T02:41:02;100934.44;;;9.55;100.00
25722;BME280;13578;53.450;15.496;2023-05-20T02:44:03;100936.56;;;9.64;100.00
25722;BME280;13578;53.450;15.496;2023-05-20T02:47:04;100930.28;;;9.62;100.00
25722;BME280;13578;53.450;15.496;2023-05-20T02:50:05;100927.16;;;9.68;100.00
25722;BME280;13578;53.450;15.496;2023-05-20T02:53:07;100939.66;;;9.73;100.00
25722;BME280;13578;53.450;15.496;2023-05-20T02:56:07;100935.81;;;9.75;100.00
25722;BME280;13578;53.450;15.496;2023-05-20T02:59:08;100939.84;;;9.69;100.00
25722;BME280;13578;53.450;15.496;2023-05-20T03:02:08;100945.59;;;9.79;100.00
25722;BME280;13578;53.450;15.496;2023-05-20T03:05:09;100940.13;;;9.79;100.00
25722;BME280;13578;53.450;15.496;2023-05-20T03:08:11;100931.31;;;9.74;100.00
25722;BME280;13578;53.450;15.496;2023-05-20T03:11:12;100925.81;;;9.74;100.00
25722;BME280;13578;53.450;15.496;2023-05-20T03:14:13;100943.63;;;9.81;100.00
25722;BME280;13578;53.450;15.496;2023-05-20T03:17:13;100937.25;;;9.81;100.00
25722;BME280;13578;53.450;15.496;2023-05-20T03:20:14;100940.88;;;9.81;100.00
25722;BME280;13578;53.450;15.496;2023-05-20T03:23:16;100938.78;;;9.85;100.00
25722;BME280;13578;53.450;15.496;2023-05-20T03:26:17;100944.94;;;9.89;100.00
25722;BME280;13578;53.450;15.496;2023-05-20T03:29:18;100936.53;;;9.92;100.00
25722;BME280;13578;53.450;15.496;2023-05-20T03:32:19;100949.13;;;9.94;100.00
25722;BME280;13578;53.450;15.496;2023-05-20T03:35:19;100946.63;;;9.91;100.00
25722;BME280;13578;53.450;15.496;2023-05-20T03:38:20;100956.06;;;10.00;100.00
25722;BME280;13578;53.450;15.496;2023-05-20T03:41:21;100955.97;;;10.14;100.00
25722;BME280;13578;53.450;15.496;2023-05-20T03:44:22;100952.03;;;10.06;100.00
25722;BME280;13578;53.450;15.496;2023-05-20T03:47:22;100956.41;;;10.08;100.00
25722;BME280;13578;53.450;15.496;2023-05-20T03:50:23;100963.13;;;10.17;100.00
25722;BME280;13578;53.450;15.496;2023-05-20T03:53:24;100955.97;;;10.14;100.00
25722;BME280;13578;53.450;15.496;2023-05-20T03:56:24;100961.91;;;10.08;100.00
25722;BME280;13578;53.450;15.496;2023-05-20T03:59:26;100965.19;;;10.13;100.00
25722;BME280;13578;53.450;15.496;2023-05-20T04:02:27;100967.06;;;10.13;100.00
25722;BME280;13578;53.450;15.496;2023-05-20T04:05:27;100962.44;;;10.13;100.00
25722;BME280;13578;53.450;15.496;2023-05-20T04:08:28;100968.59;;;10.17;100.00
25722;BME280;13578;53.450;15.496;2023-05-20T04:11:29;100966.06;;;10.14;100.00
25722;BME280;13578;53.450;15.496;2023-05-20T04:14:30;100964.09;;;10.16;100.00
25722;BME280;13578;53.450;15.496;2023-05-20T04:17:34;100969.38;;;10.19;100.00
25722;BME280;13578;53.450;15.496;2023-05-20T04:20:37;100966.53;;;10.21;100.00
25722;BME280;13578;53.450;15.496;2023-05-20T04:23:40;100968.94;;;10.25;100.00
25722;BME280;13578;53.450;15.496;2023-05-20T04:26:41;100963.56;;;10.24;100.00
25722;BME280;13578;53.450;15.496;2023-05-20T04:29:42;100959.75;;;10.26;100.00
25722;BME280;13578;53.450;15.496;2023-05-20T04:32:46;100963.03;;;10.31;100.00
25722;BME280;13578;53.450;15.496;2023-05-20T04:35:47;100957.53;;;10.31;100.00
25722;BME280;13578;53.450;15.496;2023-05-20T04:38:48;100959.28;;;10.32;100.00
25722;BME280;13578;53.450;15.496;2023-05-20T04:41:48;100963.41;;;10.40;100.00
25722;BME280;13578;53.450;15.496;2023-05-20T04:44:50;100960.41;;;10.43;100.00
25722;BME280;13578;53.450;15.496;2023-05-20T04:47:50;100977.53;;;10.46;100.00
25722;BME280;13578;53.450;15.496;2023-05-20T04:50:52;100973.59;;;10.51;100.00
25722;BME280;13578;53.450;15.496;2023-05-20T04:53:53;100968.66;;;10.43;100.00
25722;BME280;13578;53.450;15.496;2023-05-20T04:56:54;100984.47;;;10.52;100.00
25722;BME280;13578;53.450;15.496;2023-05-20T04:59:55;100984.47;;;10.52;100.00
25722;BME280;13578;53.450;15.496;2023-05-20T05:02:58;100966.56;;;10.46;100.00
25722;BME280;13578;53.450;15.496;2023-05-20T05:06:00;100986.13;;;10.55;100.00
25722;BME280;13578;53.450;15.496;2023-05-20T05:09:01;100978.19;;;10.50;100.00
25722;BME280;13578;53.450;15.496;2023-05-20T05:12:02;100989.75;;;10.55;100.00
25722;BME280;13578;53.450;15.496;2023-05-20T05:15:02;100988.00;;;10.67;100.00
25722;BME280;13578;53.450;15.496;2023-05-20T05:18:03;100985.34;;;10.65;100.00
25722;BME280;13578;53.450;15.496;2023-05-20T05:21:05;100987.09;;;10.67;100.00
25722;BME280;13578;53.450;15.496;2023-05-20T05:24:06;100989.66;;;10.70;100.00
25722;BME280;13578;53.450;15.496;2023-05-20T05:27:06;100984.59;;;10.63;100.00
25722;BME280;13578;53.450;15.496;2023-05-20T05:30:07;100989.97;;;10.65;100.00
25722;BME280;13578;53.450;15.496;2023-05-20T05:33:08;100989.00;;;10.79;100.00
25722;BME280;13578;53.450;15.496;2023-05-20T05:36:09;100993.91;;;10.74;100.00
25722;BME280;13578;53.450;15.496;2023-05-20T05:39:09;100983.72;;;10.76;100.00
25722;BME280;13578;53.450;15.496;2023-05-20T05:42:10;100987.88;;;10.82;100.00
25722;BME280;13578;53.450;15.496;2023-05-20T05:45:11;100993.13;;;10.85;100.00
25722;BME280;13578;53.450;15.496;2023-05-20T05:48:11;100993.91;;;10.87;100.00
25722;BME280;13578;53.450;15.496;2023-05-20T05:51:12;100990.50;;;10.83;100.00
25722;BME280;13578;53.450;15.496;2023-05-20T05:54:12;100987.31;;;10.89;100.00
25722;BME280;13578;53.450;15.496;2023-05-20T05:57:13;100991.25;;;10.98;100.00
25722;BME280;13578;53.450;15.496;2023-05-20T06:00:14;100984.97;;;11.09;100.00
25722;BME280;13578;53.450;15.496;2023-05-20T06:03:15;100986.53;;;11.13;100.00
25722;BME280;13578;53.450;15.496;2023-05-20T06:06:16;100985.88;;;11.09;100.00
25722;BME280;13578;53.450;15.496;2023-05-20T06:09:16;100984.88;;;11.10;100.00
25722;BME280;13578;53.450;15.496;2023-05-20T06:12:17;100979.72;;;11.06;100.00
25722;BME280;13578;53.450;15.496;2023-05-20T06:15:17;100985.34;;;11.04;100.00
25722;BME280;13578;53.450;15.496;2023-05-20T06:18:18;100983.63;;;11.27;100.00
25722;BME280;13578;53.450;15.496;2023-05-20T06:21:19;100991.94;;;11.39;100.00
25722;BME280;13578;53.450;15.496;2023-05-20T06:24:19;100992.38;;;11.46;100.00
25722;BME280;13578;53.450;15.496;2023-05-20T06:27:20;100988.09;;;11.41;100.00
25722;BME280;13578;53.450;15.496;2023-05-20T06:30:20;100991.03;;;11.51;100.00
25722;BME280;13578;53.450;15.496;2023-05-20T06:33:24;100990.63;;;11.69;100.00
25722;BME280;13578;53.450;15.496;2023-05-20T06:36:26;100993.91;;;11.74;100.00
25722;BME280;13578;53.450;15.496;2023-05-20T06:39:27;100995.50;;;11.89;100.00
25722;BME280;13578;53.450;15.496;2023-05-20T06:42:28;101002.50;;;11.94;100.00
25722;BME280;13578;53.450;15.496;2023-05-20T06:45:28;100993.97;;;11.85;100.00
25722;BME280;13578;53.450;15.496;2023-05-20T06:48:29;100996.22;;;11.91;100.00
25722;BME280;13578;53.450;15.496;2023-05-20T06:51:29;100995.72;;;11.86;100.00
25722;BME280;13578;53.450;15.496;2023-05-20T06:54:30;100999.97;;;11.90;100.00
25722;BME280;13578;53.450;15.496;2023-05-20T06:57:33;101003.81;;;12.01;100.00
25722;BME280;13578;53.450;15.496;2023-05-20T07:00:34;101001.72;;;11.91;100.00
25722;BME280;13578;53.450;15.496;2023-05-20T07:03:34;101004.19;;;11.83;100.00
25722;BME280;13578;53.450;15.496;2023-05-20T07:06:35;101001.69;;;11.80;100.00
25722;BME280;13578;53.450;15.496;2023-05-20T07:09:35;100995.50;;;11.89;100.00
25722;BME280;13578;53.450;15.496;2023-05-20T07:12:36;100994.81;;;11.86;100.00
25722;BME280;13578;53.450;15.496;2023-05-20T07:15:37;100994.38;;;11.92;100.00
25722;BME280;13578;53.450;15.496;2023-05-20T07:18:37;100982.03;;;11.98;100.00
25722;BME280;13578;53.450;15.496;2023-05-20T07:21:38;100983.91;;;11.97;100.00
25722;BME280;13578;53.450;15.496;2023-05-20T07:24:39;100978.94;;;12.02;100.00
25722;BME280;13578;53.450;15.496;2023-05-20T07:27:39;100977.59;;;12.08;100.00
25722;BME280;13578;53.450;15.496;2023-05-20T07:30:40;100982.25;;;12.30;100.00
25722;BME280;13578;53.450;15.496;2023-05-20T07:33:41;100964.25;;;12.26;100.00
25722;BME280;13578;53.450;15.496;2023-05-20T07:36:41;100974.81;;;12.44;100.00
25722;BME280;13578;53.450;15.496;2023-05-20T07:39:43;100972.84;;;12.57;100.00
25722;BME280;13578;53.450;15.496;2023-05-20T07:42:43;100976.22;;;12.72;100.00
25722;BME280;13578;53.450;15.496;2023-05-20T07:45:44;100976.47;;;12.80;100.00
25722;BME280;13578;53.450;15.496;2023-05-20T07:48:45;100977.09;;;12.84;100.00
25722;BME280;13578;53.450;15.496;2023-05-20T07:51:45;100979.47;;;13.00;100.00
25722;BME280;13578;53.450;15.496;2023-05-20T07:54:46;100963.69;;;13.25;100.00
25722;BME280;13578;53.450;15.496;2023-05-20T07:57:47;100968.44;;;13.34;100.00
25722;BME280;13578;53.450;15.496;2023-05-20T08:00:47;100953.41;;;13.27;100.00
25722;BME280;13578;53.450;15.496;2023-05-20T08:03:48;100957.69;;;13.19;100.00
25722;BME280;13578;53.450;15.496;2023-05-20T08:06:49;100961.19;;;13.22;100.00
25722;BME280;13578;53.450;15.496;2023-05-20T08:09:49;100958.44;;;13.22;100.00
25722;BME280;13578;53.450;15.496;2023-05-20T08:12:50;100956.56;;;13.22;100.00
25722;BME280;13578;53.450;15.496;2023-05-20T08:15:54;100962.91;;;13.45;100.00
25722;BME280;13578;53.450;15.496;2023-05-20T08:18:55;100956.03;;;13.51;100.00
25722;BME280;13578;53.450;15.496;2023-05-20T08:21:56;100954.03;;;13.53;100.00
25722;BME280;13578;53.450;15.496;2023-05-20T08:24:57;100960.69;;;13.50;100.00
25722;BME280;13578;53.450;15.496;2023-05-20T08:28:00;100958.53;;;13.54;100.00
25722;BME280;13578;53.450;15.496;2023-05-20T08:31:03;100950.59;;;13.61;100.00
25722;BME280;13578;53.450;15.496;2023-05-20T08:34:04;100953.34;;;13.72;100.00
25722;BME280;13578;53.450;15.496;2023-05-20T08:37:04;100948.44;;;13.76;100.00
25722;BME280;13578;53.450;15.496;2023-05-20T08:40:05;100961.22;;;14.09;100.00
25722;BME280;13578;53.450;15.496;2023-05-20T08:43:09;100946.53;;;14.30;100.00
25722;BME280;13578;53.450;15.496;2023-05-20T08:46:09;100942.78;;;14.31;100.00
25722;BME280;13578;53.450;15.496;2023-05-20T08:49:11;100945.94;;;14.26;100.00
25722;BME280;13578;53.450;15.496;2023-05-20T08:52:12;100932.69;;;14.51;100.00
25722;BME280;13578;53.450;15.496;2023-05-20T08:55:36;100932.25;;;14.67;100.00
25722;BME280;13578;53.450;15.496;2023-05-20T08:58:37;100917.91;;;14.62;100.00
25722;BME280;13578;53.450;15.496;2023-05-20T09:01:41;100919.50;;;14.55;100.00
25722;BME280;13578;53.450;15.496;2023-05-20T09:04:44;100927.13;;;14.41;100.00
25722;BME280;13578;53.450;15.496;2023-05-20T09:07:45;100934.50;;;14.62;100.00
25722;BME280;13578;53.450;15.496;2023-05-20T09:10:46;100924.31;;;14.84;100.00
25722;BME280;13578;53.450;15.496;2023-05-20T09:13:48;100920.94;;;15.11;100.00
25722;BME280;13578;53.450;15.496;2023-05-20T09:16:49;100913.41;;;15.33;100.00
25722;BME280;13578;53.450;15.496;2023-05-20T09:19:52;100920.81;;;15.22;100.00
25722;BME280;13578;53.450;15.496;2023-05-20T09:22:52;100911.56;;;15.53;100.00
25722;BME280;13578;53.450;15.496;2023-05-20T09:25:53;100918.28;;;15.70;100.00
25722;BME280;13578;53.450;15.496;2023-05-20T09:28:57;100911.28;;;15.56;100.00
25722;BME280;13578;53.450;15.496;2023-05-20T09:32:00;100912.72;;;15.60;100.00
25722;BME280;13578;53.450;15.496;2023-05-20T09:35:02;100927.66;;;15.88;100.00
25722;BME280;13578;53.450;15.496;2023-05-20T09:38:08;100916.25;;;15.92;100.00
25722;BME280;13578;53.450;15.496;2023-05-20T09:41:11;100925.16;;;15.95;100.00
25722;BME280;13578;53.450;15.496;2023-05-20T09:44:12;100899.81;;;15.90;100.00
25722;BME280;13578;53.450;15.496;2023-05-20T09:47:15;100904.63;;;15.88;100.00
25722;BME280;13578;53.450;15.496;2023-05-20T09:50:17;100911.72;;;16.20;100.00
25722;BME280;13578;53.450;15.496;2023-05-20T09:53:21;100904.16;;;16.22;100.00
25722;BME280;13578;53.450;15.496;2023-05-20T09:56:23;100894.34;;;16.47;100.00
25722;BME280;13578;53.450;15.496;2023-05-20T09:59:26;100895.63;;;16.91;100.00
25722;BME280;13578;53.450;15.496;2023-05-20T10:02:27;100899.47;;;16.80;100.00
25722;BME280;13578;53.450;15.496;2023-05-20T10:05:40;100896.03;;;16.58;100.00
25722;BME280;13578;53.450;15.496;2023-05-20T10:12:11;100896.53;;;16.81;100.00
25722;BME280;13578;53.450;15.496;2023-05-20T10:15:31;100891.75;;;16.74;100.00
25722;BME280;13578;53.450;15.496;2023-05-20T10:21:38;100904.78;;;16.91;100.00
25722;BME280;13578;53.450;15.496;2023-05-20T10:24:42;100890.03;;;17.28;100.00
25722;BME280;13578;53.450;15.496;2023-05-20T10:27:45;100894.50;;;17.75;100.00
25722;BME280;13578;53.450;15.496;2023-05-20T10:30:49;100874.34;;;18.36;100.00
25722;BME280;13578;53.450;15.496;2023-05-20T10:33:52;100864.22;;;17.82;100.00
25722;BME280;13578;53.450;15.496;2023-05-20T10:40:05;100866.53;;;17.69;100.00
25722;BME280;13578;53.450;15.496;2023-05-20T10:43:12;100864.28;;;17.18;100.00
25722;BME280;13578;53.450;15.496;2023-05-20T10:46:17;100873.97;;;17.04;100.00
25722;BME280;13578;53.450;15.496;2023-05-20T10:49:18;100865.88;;;17.39;100.00
25722;BME280;13578;53.450;15.496;2023-05-20T10:52:23;100849.38;;;17.55;100.00
25722;BME280;13578;53.450;15.496;2023-05-20T10:55:23;100856.06;;;17.99;100.00
25722;BME280;13578;53.450;15.496;2023-05-20T10:58:24;100847.91;;;18.23;100.00
25722;BME280;13578;53.450;15.496;2023-05-20T11:01:25;100831.34;;;18.14;100.00
25722;BME280;13578;53.450;15.496;2023-05-20T11:04:27;100819.44;;;18.30;100.00
25722;BME280;13578;53.450;15.496;2023-05-20T11:07:30;100815.09;;;18.27;100.00
25722;BME280;13578;53.450;15.496;2023-05-20T11:10:35;100801.47;;;18.42;100.00
25722;BME280;13578;53.450;15.496;2023-05-20T11:13:36;100802.34;;;18.16;100.00
25722;BME280;13578;53.450;15.496;2023-05-20T11:16:36;100802.34;;;18.16;100.00
25722;BME280;13578;53.450;15.496;2023-05-20T11:19:37;100793.97;;;18.08;100.00
25722;BME280;13578;53.450;15.496;2023-05-20T11:22:39;100783.38;;;18.38;100.00
25722;BME280;13578;53.450;15.496;2023-05-20T11:25:39;100784.84;;;18.58;100.00
25722;BME280;13578;53.450;15.496;2023-05-20T11:28:40;100780.78;;;18.79;100.00
25722;BME280;13578;53.450;15.496;2023-05-20T11:31:41;100770.03;;;18.84;100.00
25722;BME280;13578;53.450;15.496;2023-05-20T11:34:42;100782.44;;;19.07;100.00
25722;BME280;13578;53.450;15.496;2023-05-20T11:37:43;100754.50;;;19.16;100.00
25722;BME280;13578;53.450;15.496;2023-05-20T11:40:52;100765.06;;;18.96;100.00
25722;BME280;13578;53.450;15.496;2023-05-20T11:43:59;100765.06;;;19.13;100.00
25722;BME280;13578;53.450;15.496;2023-05-20T11:47:01;100753.44;;;19.26;100.00
25722;BME280;13578;53.450;15.496;2023-05-20T11:50:02;100763.72;;;19.50;100.00
25722;BME280;13578;53.450;15.496;2023-05-20T11:53:04;100751.69;;;19.25;100.00
25722;BME280;13578;53.450;15.496;2023-05-20T11:56:05;100760.94;;;19.33;100.00
25722;BME280;13578;53.450;15.496;2023-05-20T11:59:07;100760.09;;;19.66;100.00
25722;BME280;13578;53.450;15.496;2023-05-20T12:02:09;100754.50;;;19.91;100.00
25722;BME280;13578;53.450;15.496;2023-05-20T12:05:09;100737.09;;;19.56;100.00
25722;BME280;13578;53.450;15.496;2023-05-20T12:08:10;100757.47;;;19.40;100.00
25722;BME280;13578;53.450;15.496;2023-05-20T12:11:11;100762.84;;;19.49;100.00
25722;BME280;13578;53.450;15.496;2023-05-20T12:14:12;100759.53;;;19.29;100.00
25722;BME280;13578;53.450;15.496;2023-05-20T12:17:12;100760.75;;;19.27;100.00
25722;BME280;13578;53.450;15.496;2023-05-20T12:20:14;100744.75;;;19.12;100.00
25722;BME280;13578;53.450;15.496;2023-05-20T12:23:16;100744.06;;;19.27;100.00
25722;BME280;13578;53.450;15.496;2023-05-20T12:26:16;100757.28;;;19.66;100.00
25722;BME280;13578;53.450;15.496;2023-05-20T12:29:17;100729.44;;;19.25;100.00
25722;BME280;13578;53.450;15.496;2023-05-20T12:32:17;100727.88;;;19.39;100.00
25722;BME280;13578;53.450;15.496;2023-05-20T12:35:34;100732.22;;;19.74;100.00
25722;BME280;13578;53.450;15.496;2023-05-20T12:38:35;100729.28;;;19.84;100.00
25722;BME280;13578;53.450;15.496;2023-05-20T12:41:36;100730.75;;;20.20;100.00
25722;BME280;13578;53.450;15.496;2023-05-20T12:44:36;100729.94;;;20.51;100.00
25722;BME280;13578;53.450;15.496;2023-05-20T12:47:37;100717.00;;;20.58;100.00
25722;BME280;13578;53.450;15.496;2023-05-20T12:50:38;100699.75;;;20.23;98.78
25722;BME280;13578;53.450;15.496;2023-05-20T12:53:38;100688.66;;;20.46;100.00
25722;BME280;13578;53.450;15.496;2023-05-20T12:56:39;100699.06;;;20.21;99.66
25722;BME280;13578;53.450;15.496;2023-05-20T12:59:40;100708.81;;;20.25;100.00
25722;BME280;13578;53.450;15.496;2023-05-20T13:02:41;100701.09;;;20.35;99.34
25722;BME280;13578;53.450;15.496;2023-05-20T13:05:42;100699.78;;;20.54;100.00
25722;BME280;13578;53.450;15.496;2023-05-20T13:08:43;100694.41;;;20.84;100.00
25722;BME280;13578;53.450;15.496;2023-05-20T13:11:44;100676.81;;;21.07;100.00
25722;BME280;13578;53.450;15.496;2023-05-20T13:14:45;100675.03;;;21.14;96.95
25722;BME280;13578;53.450;15.496;2023-05-20T13:17:46;100670.31;;;20.91;96.55
25722;BME280;13578;53.450;15.496;2023-05-20T13:20:46;100654.94;;;20.96;97.31
25722;BME280;13578;53.450;15.496;2023-05-20T13:23:47;100662.91;;;20.75;96.67
25722;BME280;13578;53.450;15.496;2023-05-20T13:26:47;100667.31;;;20.61;98.89
25722;BME280;13578;53.450;15.496;2023-05-20T13:29:48;100661.50;;;20.79;97.94
25722;BME280;13578;53.450;15.496;2023-05-20T13:32:50;100656.16;;;20.93;97.80
25722;BME280;13578;53.450;15.496;2023-05-20T13:35:50;100662.94;;;21.22;98.24
25722;BME280;13578;53.450;15.496;2023-05-20T13:38:54;100668.91;;;20.96;98.37
25722;BME280;13578;53.450;15.496;2023-05-20T13:41:55;100676.38;;;20.95;99.42
25722;BME280;13578;53.450;15.496;2023-05-20T13:44:56;100664.91;;;20.90;97.49
25722;BME280;13578;53.450;15.496;2023-05-20T13:47:56;100657.53;;;20.97;96.65
25722;BME280;13578;53.450;15.496;2023-05-20T13:50:57;100641.81;;;21.19;94.05
25722;BME280;13578;53.450;15.496;2023-05-20T13:53:58;100634.75;;;21.08;93.25
25722;BME280;13578;53.450;15.496;2023-05-20T13:56:58;100646.88;;;21.01;95.01
25722;BME280;13578;53.450;15.496;2023-05-20T14:00:00;100642.84;;;21.03;94.00
25722;BME280;13578;53.450;15.496;2023-05-20T14:03:01;100642.09;;;21.48;94.92
25722;BME280;13578;53.450;15.496;2023-05-20T14:06:04;100635.91;;;21.37;94.30
25722;BME280;13578;53.450;15.496;2023-05-20T14:09:05;100635.38;;;21.19;94.56
25722;BME280;13578;53.450;15.496;2023-05-20T14:12:15;100621.06;;;21.22;93.10
25722;BME280;13578;53.450;15.496;2023-05-20T14:15:20;100630.25;;;21.46;94.77
25722;BME280;13578;53.450;15.496;2023-05-20T14:18:25;100626.34;;;21.70;95.69
25722;BME280;13578;53.450;15.496;2023-05-20T14:21:26;100595.81;;;21.68;89.51
25722;BME280;13578;53.450;15.496;2023-05-20T14:24:26;100611.03;;;21.66;92.50
25722;BME280;13578;53.450;15.496;2023-05-20T14:27:28;100625.50;;;21.69;94.68
25722;BME280;13578;53.450;15.496;2023-05-20T14:30:29;100614.66;;;21.51;92.77
25722;BME280;13578;53.450;15.496;2023-05-20T14:33:29;100614.06;;;21.41;92.13
25722;BME280;13578;53.450;15.496;2023-05-20T14:36:30;100607.78;;;21.24;92.39
25722;BME280;13578;53.450;15.496;2023-05-20T14:39:31;100605.38;;;20.98;93.06
25722;BME280;13578;53.450;15.496;2023-05-20T14:42:32;100618.84;;;20.94;95.66
25722;BME280;13578;53.450;15.496;2023-05-20T14:45:32;100604.06;;;21.08;94.19
25722;BME280;13578;53.450;15.496;2023-05-20T14:48:33;100613.06;;;21.34;95.09
25722;BME280;13578;53.450;15.496;2023-05-20T14:51:34;100583.81;;;21.45;89.91
25722;BME280;13578;53.450;15.496;2023-05-20T14:54:34;100599.81;;;21.36;91.69
25722;BME280;13578;53.450;15.496;2023-05-20T14:57:35;100594.72;;;21.39;92.53
25722;BME280;13578;53.450;15.496;2023-05-20T15:00:36;100596.72;;;21.31;92.68
25722;BME280;13578;53.450;15.496;2023-05-20T15:03:36;100598.94;;;21.35;93.33
25722;BME280;13578;53.450;15.496;2023-05-20T15:06:37;100602.72;;;21.42;93.48
25722;BME280;13578;53.450;15.496;2023-05-20T15:09:38;100585.75;;;21.44;91.21
25722;BME280;13578;53.450;15.496;2023-05-20T15:12:38;100573.34;;;21.47;91.12
25722;BME280;13578;53.450;15.496;2023-05-20T15:15:39;100576.72;;;21.42;90.86
25722;BME280;13578;53.450;15.496;2023-05-20T15:18:40;100578.66;;;21.41;92.86
25722;BME280;13578;53.450;15.496;2023-05-20T15:21:40;100566.72;;;21.33;91.74
25722;BME280;13578;53.450;15.496;2023-05-20T15:24:41;100576.63;;;21.35;93.42
25722;BME280;13578;53.450;15.496;2023-05-20T15:27:42;100577.19;;;21.31;94.94
25722;BME280;13578;53.450;15.496;2023-05-20T15:30:42;100570.34;;;21.33;93.31
25722;BME280;13578;53.450;15.496;2023-05-20T15:33:43;100556.75;;;21.30;92.43
25722;BME280;13578;53.450;15.496;2023-05-20T15:36:43;100564.56;;;21.35;94.11